Time;durP1;ratioP1;P1;durP2;ratioP2;P2;SDS_P1;SDS_P2;PMS_P1;PMS_P2;Temp;Humidity;BMP_temperature;BMP_pressure;BME280_temperature;BME280_humidity;BME280_pressure;Samples;Min_cycle;Max_cycle;Signal;HPM_P1;HPM_P2
2022/03/03 00:19:44;;;;;;;15.93;13.68;;;;;;;;;;5158026;27;20232;-63
2022/03/03 00:22:11;;;;;;;16.08;13.85;;;;;;;;;;5177810;27;20149;-64
2022/03/03 00:24:37;;;;;;;14.95;13.40;;;;;;;;;;5179329;27;20082;-63
2022/03/03 00:27:05;;;;;;;15.98;13.85;;;;;;;;;;5180467;27;20070;-64
2022/03/03 00:29:31;;;;;;;16.83;13.27;;;;;;;;;;5180577;27;20150;-61
2022/03/03 00:31:57;;;;;;;15.32;13.20;;;;;;;;;;5180602;27;20484;-61
2022/03/03 00:34:23;;;;;;;15.15;13.45;;;;;;;;;;5180533;27;20112;-61
2022/03/03 00:36:49;;;;;;;15.90;14.30;;;;;;;;;;5144057;27;20143;-63
2022/03/03 00:39:16;;;;;;;15.52;13.95;;;;;;;;;;5180658;27;20116;-63
2022/03/03 00:41:42;;;;;;;15.07;13.57;;;;;;;;;;5180514;27;20082;-63
2022/03/03 00:44:09;;;;;;;15.65;13.35;;;;;;;;;;5161531;27;20079;-64
2022/03/03 00:46:36;;;;;;;15.30;13.70;;;;;;;;;;5161431;27;20090;-63
2022/03/03 00:49:03;;;;;;;16.30;13.95;;;;;;;;;;5180521;27;20077;-63
2022/03/03 00:51:29;;;;;;;15.57;13.88;;;;;;;;;;5180410;27;20109;-63
2022/03/03 00:53:56;;;;;;;15.32;13.68;;;;;;;;;;5144361;27;20088;-63
2022/03/03 00:56:22;;;;;;;15.75;14.10;;;;;;;;;;5180456;27;20081;-63
2022/03/03 00:58:48;;;;;;;17.05;14.00;;;;;;;;;;5161593;27;20100;-63
2022/03/03 01:01:14;;;;;;;17.50;13.90;;;;;;;;;;5161213;27;20093;-63
2022/03/03 01:03:41;;;;;;;15.40;13.80;;;;;;;;;;5180445;27;20066;-64
2022/03/03 01:06:07;;;;;;;14.75;12.80;;;;;;;;;;5161260;27;20182;-63
2022/03/03 01:08:33;;;;;;;14.55;13.00;;;;;;;;;;5180446;27;20512;-63
2022/03/03 01:10:59;;;;;;;14.05;12.57;;;;;;;;;;5161147;27;20497;-63
2022/03/03 01:13:25;;;;;;;14.25;12.85;;;;;;;;;;5180360;27;20096;-64
2022/03/03 01:15:53;;;;;;;16.62;13.93;;;;;;;;;;5180513;27;20556;-63
2022/03/03 01:18:20;;;;;;;14.35;12.95;;;;;;;;;;5161140;27;20086;-64
2022/03/03 01:20:46;;;;;;;15.00;13.40;;;;;;;;;;5161220;27;20165;-63
2022/03/03 01:23:12;;;;;;;14.20;12.68;;;;;;;;;;5160889;27;20074;-63
2022/03/03 01:25:38;;;;;;;15.63;13.20;;;;;;;;;;5180396;27;20092;-63
2022/03/03 01:28:05;;;;;;;14.27;12.88;;;;;;;;;;5180009;27;20472;-63
2022/03/03 01:30:31;;;;;;;15.25;13.65;;;;;;;;;;5180329;27;20085;-63
2022/03/03 01:32:57;;;;;;;16.27;13.27;;;;;;;;;;5161370;27;20391;-65
2022/03/03 01:35:23;;;;;;;15.13;13.55;;;;;;;;;;5179943;27;20073;-63
2022/03/03 01:37:50;;;;;;;15.40;12.98;;;;;;;;;;5160804;27;20068;-63
2022/03/03 01:40:16;;;;;;;14.82;12.80;;;;;;;;;;5144034;27;20177;-64
2022/03/03 01:42:42;;;;;;;16.17;13.65;;;;;;;;;;5161403;27;20078;-64
2022/03/03 01:45:09;;;;;;;15.02;13.43;;;;;;;;;;5180278;27;20152;-64
2022/03/03 01:47:35;;;;;;;14.73;13.07;;;;;;;;;;5180038;27;20085;-64
2022/03/03 01:50:01;;;;;;;16.42;12.80;;;;;;;;;;5180389;27;20086;-64
2022/03/03 01:52:27;;;;;;;15.63;13.98;;;;;;;;;;5161014;27;20433;-64
2022/03/03 01:54:53;;;;;;;15.65;13.95;;;;;;;;;;5180192;27;20097;-64
2022/03/03 01:57:20;;;;;;;16.52;14.82;;;;;;;;;;5179995;27;20108;-63
2022/03/03 01:59:47;;;;;;;16.87;14.63;;;;;;;;;;5179948;27;20151;-63
2022/03/03 02:02:13;;;;;;;15.90;14.18;;;;;;;;;;5179937;27;20074;-65
2022/03/03 02:04:40;;;;;;;17.15;14.82;;;;;;;;;;5175153;27;20089;-64
2022/03/03 02:07:07;;;;;;;19.58;17.58;;;;;;;;;;5201091;27;20179;-66
2022/03/03 02:09:34;;;;;;;18.52;16.58;;;;;;;;;;5181693;27;20066;-65
2022/03/03 02:12:00;;;;;;;18.12;15.88;;;;;;;;;;5182292;27;20534;-65
2022/03/03 02:14:26;;;;;;;18.27;15.65;;;;;;;;;;5181782;27;20100;-64
2022/03/03 02:16:52;;;;;;;19.10;17.08;;;;;;;;;;5200962;27;20097;-63
2022/03/03 02:19:19;;;;;;;19.65;16.95;;;;;;;;;;5200971;27;20405;-62
2022/03/03 02:21:53;;;;;;;17.73;15.57;;;;;;;;;;5181738;27;20183;-62
2022/03/03 02:24:20;;;;;;;19.02;16.15;;;;;;;;;;5201005;27;20104;-63
2022/03/03 02:26:47;;;;;;;19.77;17.20;;;;;;;;;;5200989;27;20156;-63
2022/03/03 02:29:13;;;;;;;19.15;17.05;;;;;;;;;;5181698;27;20077;-63
2022/03/03 02:31:40;;;;;;;17.30;15.45;;;;;;;;;;5181376;27;20594;-63
2022/03/03 02:34:07;;;;;;;17.60;15.52;;;;;;;;;;5180502;27;20094;-63
2022/03/03 02:36:33;;;;;;;17.33;15.52;;;;;;;;;;5181092;27;20105;-64
2022/03/03 02:39:01;;;;;;;18.05;15.77;;;;;;;;;;5199988;27;20552;-63
2022/03/03 02:41:28;;;;;;;18.80;16.50;;;;;;;;;;5200849;27;20076;-70
2022/03/03 02:43:55;;;;;;;20.65;16.80;;;;;;;;;;5181538;27;20098;-64
2022/03/03 02:46:21;;;;;;;18.08;16.17;;;;;;;;;;5200994;27;20166;-64
2022/03/03 02:48:47;;;;;;;19.27;16.58;;;;;;;;;;5199948;27;20081;-64
2022/03/03 02:51:13;;;;;;;20.42;17.35;;;;;;;;;;5181087;27;20113;-64
2022/03/03 02:53:39;;;;;;;19.60;16.90;;;;;;;;;;5180953;27;20516;-64
2022/03/03 02:56:06;;;;;;;20.02;16.95;;;;;;;;;;5199843;27;20160;-64
2022/03/03 02:58:32;;;;;;;23.55;18.77;;;;;;;;;;5199612;27;20820;-64
2022/03/03 03:00:59;;;;;;;20.58;17.42;;;;;;;;;;5162938;27;20581;-64
2022/03/03 03:03:25;;;;;;;22.52;19.20;;;;;;;;;;5200142;27;20089;-64
2022/03/03 03:05:51;;;;;;;21.08;17.70;;;;;;;;;;5199938;27;20491;-64
2022/03/03 03:08:18;;;;;;;20.92;18.35;;;;;;;;;;5198279;27;20070;-63
2022/03/03 03:10:44;;;;;;;20.00;16.73;;;;;;;;;;5199781;27;20077;-64
2022/03/03 03:13:12;;;;;;;21.77;17.52;;;;;;;;;;5180236;27;20062;-63
2022/03/03 03:15:38;;;;;;;23.30;17.55;;;;;;;;;;5200661;27;20231;-66
2022/03/03 03:18:11;;;;;;;19.50;17.27;;;;;;;;;;5200941;27;20078;-65
2022/03/03 03:20:39;;;;;;;19.98;17.08;;;;;;;;;;5200544;27;20074;-64
2022/03/03 03:23:06;;;;;;;21.23;18.30;;;;;;;;;;5180962;27;20096;-64
2022/03/03 03:25:32;;;;;;;21.02;18.42;;;;;;;;;;5181246;27;20081;-66
2022/03/03 03:27:58;;;;;;;23.58;17.80;;;;;;;;;;5200807;27;20183;-64
2022/03/03 03:30:24;;;;;;;21.73;18.10;;;;;;;;;;5200623;27;20198;-64
2022/03/03 03:32:50;;;;;;;19.05;16.73;;;;;;;;;;5181203;27;20452;-64
2022/03/03 03:35:16;;;;;;;21.62;18.92;;;;;;;;;;5200811;27;20073;-63
2022/03/03 03:37:42;;;;;;;24.10;17.60;;;;;;;;;;5181296;27;20167;-63
2022/03/03 03:40:09;;;;;;;19.60;17.50;;;;;;;;;;5200607;27;20082;-64
2022/03/03 03:42:35;;;;;;;20.42;17.77;;;;;;;;;;5200739;27;20074;-64
2022/03/03 03:45:01;;;;;;;20.37;17.55;;;;;;;;;;5200400;27;20076;-63
2022/03/03 03:47:27;;;;;;;21.73;17.23;;;;;;;;;;5200423;27;20066;-63
2022/03/03 03:49:53;;;;;;;21.45;17.70;;;;;;;;;;5200222;27;20610;-63
2022/03/03 03:52:19;;;;;;;22.58;17.92;;;;;;;;;;5181382;27;20070;-63
2022/03/03 03:54:45;;;;;;;20.65;17.65;;;;;;;;;;5197670;27;20108;-63
2022/03/03 03:57:11;;;;;;;21.87;17.55;;;;;;;;;;5195843;27;20615;-64
2022/03/03 03:59:37;;;;;;;23.35;18.52;;;;;;;;;;5195818;27;20105;-63
2022/03/03 04:02:03;;;;;;;19.98;17.85;;;;;;;;;;5197201;27;20114;-62
2022/03/03 04:04:29;;;;;;;22.23;19.37;;;;;;;;;;5197502;27;20891;-63
2022/03/03 04:06:56;;;;;;;21.33;18.65;;;;;;;;;;5197497;27;20179;-62
2022/03/03 04:09:22;;;;;;;20.48;17.05;;;;;;;;;;5197736;27;20568;-64
2022/03/03 04:11:47;;;;;;;20.10;18.00;;;;;;;;;;5197387;27;20184;-64
2022/03/03 04:14:13;;;;;;;22.25;18.27;;;;;;;;;;5198242;27;20073;-64
2022/03/03 04:16:39;;;;;;;21.60;17.67;;;;;;;;;;5201782;27;20503;-64
2022/03/03 04:19:05;;;;;;;19.75;17.50;;;;;;;;;;5182193;27;20065;-64
2022/03/03 04:21:32;;;;;;;18.73;15.35;;;;;;;;;;5201663;27;20587;-64
2022/03/03 04:23:58;;;;;;;18.55;16.20;;;;;;;;;;5165115;27;20163;-64
2022/03/03 04:26:25;;;;;;;18.62;16.62;;;;;;;;;;5199892;27;20085;-64
2022/03/03 04:28:51;;;;;;;20.70;17.33;;;;;;;;;;5199992;27;20085;-64
2022/03/03 04:31:17;;;;;;;19.95;17.00;;;;;;;;;;5199736;27;20104;-64
2022/03/03 04:33:43;;;;;;;23.50;18.10;;;;;;;;;;5200468;27;20117;-64
2022/03/03 04:36:09;;;;;;;18.77;16.60;;;;;;;;;;5201564;27;20077;-64
2022/03/03 04:38:35;;;;;;;19.45;16.20;;;;;;;;;;5201752;27;20397;-64
2022/03/03 04:41:01;;;;;;;20.48;17.85;;;;;;;;;;5201468;27;20170;-64
2022/03/03 04:43:27;;;;;;;20.17;16.08;;;;;;;;;;5201689;27;20102;-64
2022/03/03 04:45:53;;;;;;;19.12;16.33;;;;;;;;;;5165214;27;20484;-64
2022/03/03 04:48:19;;;;;;;17.30;15.50;;;;;;;;;;5182382;27;20120;-63
2022/03/03 04:50:45;;;;;;;18.52;15.82;;;;;;;;;;5201437;27;20187;-64
2022/03/03 04:53:11;;;;;;;18.80;15.88;;;;;;;;;;5201542;27;20096;-64
2022/03/03 04:55:37;;;;;;;17.33;15.05;;;;;;;;;;5201348;27;20085;-64
2022/03/03 04:58:03;;;;;;;16.45;14.75;;;;;;;;;;5182465;27;20153;-64
2022/03/03 05:00:29;;;;;;;17.75;15.48;;;;;;;;;;5164801;27;20104;-62
2022/03/03 05:02:55;;;;;;;16.02;14.30;;;;;;;;;;5201472;27;20117;-61
2022/03/03 05:05:21;;;;;;;18.65;16.25;;;;;;;;;;5201512;27;20171;-62
2022/03/03 05:07:47;;;;;;;17.45;15.02;;;;;;;;;;5201330;27;20090;-62
2022/03/03 05:10:13;;;;;;;18.27;16.05;;;;;;;;;;5182341;27;20074;-63
2022/03/03 05:12:39;;;;;;;16.20;14.30;;;;;;;;;;5200972;27;20061;-63
2022/03/03 05:15:06;;;;;;;18.12;15.50;;;;;;;;;;5201077;27;20090;-64
2022/03/03 05:17:32;;;;;;;18.12;16.23;;;;;;;;;;5201311;27;20422;-62
2022/03/03 05:19:58;;;;;;;17.10;14.75;;;;;;;;;;5182064;27;20077;-63
2022/03/03 05:22:24;;;;;;;18.58;15.20;;;;;;;;;;5201324;27;20402;-62
2022/03/03 05:24:52;;;;;;;16.77;14.40;;;;;;;;;;5201428;27;20053;-63
2022/03/03 05:27:18;;;;;;;18.35;15.80;;;;;;;;;;5201344;27;20081;-64
2022/03/03 05:29:44;;;;;;;18.02;15.25;;;;;;;;;;5201046;27;20410;-62
2022/03/03 05:32:10;;;;;;;18.67;16.40;;;;;;;;;;5200103;27;20465;-61
2022/03/03 05:34:36;;;;;;;18.60;14.43;;;;;;;;;;5201316;27;20054;-62
2022/03/03 05:37:05;;;;;;;19.55;16.95;;;;;;;;;;5201333;27;20074;-59
2022/03/03 05:39:31;;;;;;;15.93;14.23;;;;;;;;;;5164421;27;20093;-62
2022/03/03 05:41:57;;;;;;;16.58;13.75;;;;;;;;;;5201135;27;20073;-62
2022/03/03 05:44:24;;;;;;;13.70;12.30;;;;;;;;;;5201129;27;20081;-61
2022/03/03 05:46:50;;;;;;;14.35;12.85;;;;;;;;;;5201242;27;20078;-62
2022/03/03 05:49:19;;;;;;;14.55;13.05;;;;;;;;;;5201268;27;20176;-62
2022/03/03 05:51:45;;;;;;;13.30;11.90;;;;;;;;;;5201176;27;20085;-62
2022/03/03 05:54:11;;;;;;;13.80;12.30;;;;;;;;;;5201092;27;20093;-62
2022/03/03 05:56:39;;;;;;;15.68;13.25;;;;;;;;;;5201502;27;20094;-62
2022/03/03 05:59:13;;;;;;;18.23;12.93;;;;;;;;;;5201403;27;20090;-62
2022/03/03 06:01:42;;;;;;;16.20;12.68;;;;;;;;;;5182000;27;20244;-61
2022/03/03 06:04:10;;;;;;;15.95;13.68;;;;;;;;;;5200923;27;20527;-61
2022/03/03 06:06:37;;;;;;;15.80;13.75;;;;;;;;;;5182024;27;20086;-61
2022/03/03 06:09:10;;;;;;;19.08;15.77;;;;;;;;;;5200910;27;20500;-61
2022/03/03 06:12:19;;;;;;;17.87;14.98;;;;;;;;;;5201192;27;20467;-62
2022/03/03 06:14:52;;;;;;;15.60;14.00;;;;;;;;;;5118326;27;20422;-62
2022/03/03 06:17:21;;;;;;;14.63;13.02;;;;;;;;;;5194473;27;20128;-62
2022/03/03 06:19:49;;;;;;;14.80;13.30;;;;;;;;;;5181641;27;20069;-61
2022/03/03 06:22:16;;;;;;;16.77;12.65;;;;;;;;;;5201025;27;20136;-61
2022/03/03 06:24:42;;;;;;;16.27;13.38;;;;;;;;;;5200896;27;20484;-61
2022/03/03 06:27:08;;;;;;;15.35;12.85;;;;;;;;;;5200989;27;20093;-62
2022/03/03 06:29:35;;;;;;;14.93;12.80;;;;;;;;;;5164170;27;20488;-62
2022/03/03 06:32:02;;;;;;;16.98;13.32;;;;;;;;;;5181527;27;20501;-63
2022/03/03 06:34:28;;;;;;;14.07;12.60;;;;;;;;;;5200887;27;20101;-61
2022/03/03 06:36:55;;;;;;;16.55;13.35;;;;;;;;;;5200904;27;20058;-62
2022/03/03 06:39:21;;;;;;;14.50;12.45;;;;;;;;;;5200650;27;20058;-62
2022/03/03 06:41:47;;;;;;;13.52;12.23;;;;;;;;;;5200797;27;20088;-62
2022/03/03 06:44:13;;;;;;;13.75;12.25;;;;;;;;;;5200737;27;20070;-60
2022/03/03 06:46:39;;;;;;;13.18;11.88;;;;;;;;;;5200816;27;20553;-61
2022/03/03 06:49:06;;;;;;;13.43;11.93;;;;;;;;;;5163998;27;20472;-61
2022/03/03 06:51:44;;;;;;;13.25;11.95;;;;;;;;;;5200858;27;20085;-61
2022/03/03 06:54:20;;;;;;;12.40;11.10;;;;;;;;;;5200569;27;20057;-61
2022/03/03 06:56:55;;;;;;;15.48;12.07;;;;;;;;;;5200907;27;20093;-61
2022/03/03 06:59:34;;;;;;;12.88;11.40;;;;;;;;;;5200716;27;20081;-61
2022/03/03 07:02:01;;;;;;;13.30;11.73;;;;;;;;;;5199515;27;20093;-60
2022/03/03 07:04:29;;;;;;;12.45;11.15;;;;;;;;;;5200678;27;20062;-62
2022/03/03 07:06:56;;;;;;;13.25;11.93;;;;;;;;;;5200672;27;20065;-62
2022/03/03 07:09:22;;;;;;;13.30;11.90;;;;;;;;;;5200535;27;20198;-59
2022/03/03 07:11:48;;;;;;;14.93;13.32;;;;;;;;;;5200665;27;20510;-61
2022/03/03 07:14:15;;;;;;;15.60;12.68;;;;;;;;;;5200572;27;20084;-62
2022/03/03 07:16:44;;;;;;;12.70;11.40;;;;;;;;;;5200657;27;20568;-61
2022/03/03 07:19:26;;;;;;;11.98;10.75;;;;;;;;;;5200410;27;20096;-61
2022/03/03 07:22:09;;;;;;;13.18;11.18;;;;;;;;;;5200907;27;20085;-60
2022/03/03 07:24:47;;;;;;;13.45;11.35;;;;;;;;;;5181705;27;20432;-62
2022/03/03 07:27:21;;;;;;;14.65;11.18;;;;;;;;;;5200714;27;20093;-66
2022/03/03 07:29:55;;;;;;;13.27;11.88;;;;;;;;;;5181123;27;20070;-66
2022/03/03 07:32:30;;;;;;;12.77;11.05;;;;;;;;;;5181308;27;20073;-63
2022/03/03 07:35:01;;;;;;;14.48;11.85;;;;;;;;;;5200211;27;20070;-63
2022/03/03 07:37:35;;;;;;;11.77;10.55;;;;;;;;;;5181242;27;20104;-65
2022/03/03 07:40:07;;;;;;;15.50;11.70;;;;;;;;;;5200399;27;20073;-64
2022/03/03 07:42:33;;;;;;;13.07;11.68;;;;;;;;;;5200505;27;20081;-64
2022/03/03 07:44:59;;;;;;;13.30;12.00;;;;;;;;;;5181373;27;20080;-65
2022/03/03 07:47:27;;;;;;;17.42;12.07;;;;;;;;;;5181593;27;20152;-63
2022/03/03 07:49:55;;;;;;;16.45;12.23;;;;;;;;;;5181067;27;20475;-64
2022/03/03 07:52:21;;;;;;;14.57;11.85;;;;;;;;;;5181319;27;20073;-64
2022/03/03 07:54:47;;;;;;;17.48;14.20;;;;;;;;;;5181534;27;20471;-64
2022/03/03 07:57:16;;;;;;;21.17;16.05;;;;;;;;;;5200528;27;20180;-64
2022/03/03 07:59:46;;;;;;;16.77;14.75;;;;;;;;;;5200514;27;20093;-64
2022/03/03 08:02:18;;;;;;;19.20;14.98;;;;;;;;;;5200610;27;20070;-62
2022/03/03 08:04:45;;;;;;;20.00;15.68;;;;;;;;;;5200786;27;20066;-64
2022/03/03 08:07:13;;;;;;;21.02;15.15;;;;;;;;;;5181288;27;20171;-64
2022/03/03 08:09:40;;;;;;;18.60;15.57;;;;;;;;;;5200355;27;20574;-64
2022/03/03 08:12:07;;;;;;;23.48;15.93;;;;;;;;;;5200396;27;20085;-62
2022/03/03 08:14:34;;;;;;;17.17;15.32;;;;;;;;;;5180959;27;20476;-63
2022/03/03 08:17:00;;;;;;;20.40;15.07;;;;;;;;;;5200276;27;20074;-63
2022/03/03 08:19:26;;;;;;;20.65;16.83;;;;;;;;;;5200144;27;20073;-63
2022/03/03 08:21:52;;;;;;;20.80;16.33;;;;;;;;;;5200478;27;20550;-63
2022/03/03 08:24:18;;;;;;;21.55;17.92;;;;;;;;;;5200384;27;20477;-62
2022/03/03 08:26:45;;;;;;;23.62;18.92;;;;;;;;;;5200409;27;20144;-62
2022/03/03 08:29:12;;;;;;;30.12;21.08;;;;;;;;;;5200162;27;20089;-62
2022/03/03 08:31:40;;;;;;;29.42;21.75;;;;;;;;;;5200260;27;20065;-63
2022/03/03 08:34:16;;;;;;;28.38;20.88;;;;;;;;;;5200352;27;20235;-63
2022/03/03 08:36:49;;;;;;;29.12;22.92;;;;;;;;;;5200503;27;20400;-63
2022/03/03 08:39:17;;;;;;;32.58;24.23;;;;;;;;;;5181246;27;20094;-63
2022/03/03 08:41:44;;;;;;;32.65;24.87;;;;;;;;;;5200514;27;20482;-64
2022/03/03 08:44:11;;;;;;;34.80;25.42;;;;;;;;;;5200343;27;20078;-62
2022/03/03 08:46:40;;;;;;;30.92;24.27;;;;;;;;;;5201254;27;20081;-62
2022/03/03 08:49:08;;;;;;;34.75;23.77;;;;;;;;;;5201657;27;20532;-63
2022/03/03 08:51:36;;;;;;;31.23;23.50;;;;;;;;;;5201923;27;20078;-63
2022/03/03 08:54:02;;;;;;;37.00;23.58;;;;;;;;;;5201461;27;20086;-62
2022/03/03 08:56:28;;;;;;;33.15;25.42;;;;;;;;;;5201539;27;20504;-63
2022/03/03 08:58:54;;;;;;;33.63;25.45;;;;;;;;;;5201471;27;20102;-64
2022/03/03 09:01:20;;;;;;;34.50;24.33;;;;;;;;;;5182388;27;20493;-68
2022/03/03 09:03:46;;;;;;;30.80;23.33;;;;;;;;;;5164848;27;20096;-64
2022/03/03 09:06:19;;;;;;;34.58;23.98;;;;;;;;;;5201370;27;20404;-62
2022/03/03 09:08:45;;;;;;;38.08;25.02;;;;;;;;;;5201442;27;20093;-63
2022/03/03 09:11:11;;;;;;;28.98;23.15;;;;;;;;;;5182127;27;20074;-65
2022/03/03 09:13:37;;;;;;;31.33;24.08;;;;;;;;;;5182230;27;20074;-63
2022/03/03 09:16:04;;;;;;;29.70;23.42;;;;;;;;;;5201367;27;20067;-62
2022/03/03 09:18:31;;;;;;;30.12;23.00;;;;;;;;;;5182097;27;20085;-63
2022/03/03 09:20:57;;;;;;;28.62;22.48;;;;;;;;;;5201129;27;20092;-63
2022/03/03 09:23:23;;;;;;;34.80;23.10;;;;;;;;;;5201493;27;20171;-61
2022/03/03 09:25:50;;;;;;;29.55;23.20;;;;;;;;;;5201362;27;20513;-63
2022/03/03 09:28:16;;;;;;;32.42;25.12;;;;;;;;;;5201416;27;20086;-62
2022/03/03 09:30:42;;;;;;;31.17;24.60;;;;;;;;;;5201121;27;20062;-64
2022/03/03 09:33:08;;;;;;;32.08;23.95;;;;;;;;;;5201399;27;20066;-63
2022/03/03 09:35:34;;;;;;;26.70;20.45;;;;;;;;;;5201252;27;20073;-64
2022/03/03 09:38:00;;;;;;;25.33;18.87;;;;;;;;;;5201332;27;20072;-65
2022/03/03 09:40:27;;;;;;;20.88;17.08;;;;;;;;;;5201348;27;20072;-64
2022/03/03 09:43:00;;;;;;;22.05;17.40;;;;;;;;;;5201336;27;20073;-64
2022/03/03 09:45:27;;;;;;;19.65;16.60;;;;;;;;;;5201671;27;20081;-63
2022/03/03 09:47:54;;;;;;;19.30;16.73;;;;;;;;;;5201344;27;20097;-62
2022/03/03 09:50:22;;;;;;;17.73;15.80;;;;;;;;;;5164621;27;20132;-62
2022/03/03 09:52:49;;;;;;;19.00;16.60;;;;;;;;;;5164620;27;20085;-62
2022/03/03 09:55:15;;;;;;;23.08;16.83;;;;;;;;;;5181836;27;20169;-63
2022/03/03 09:57:42;;;;;;;22.02;16.05;;;;;;;;;;5200994;27;20416;-63
2022/03/03 10:00:10;;;;;;;19.30;15.93;;;;;;;;;;5180611;27;20088;-63
2022/03/03 10:02:59;;;;;;;18.12;15.20;;;;;;;;;;5201098;27;20112;-64
2022/03/03 10:05:36;;;;;;;17.10;15.13;;;;;;;;;;5200384;27;20447;-62
2022/03/03 10:08:04;;;;;;;18.62;14.70;;;;;;;;;;5200573;27;20104;-62
2022/03/03 10:10:31;;;;;;;18.55;16.20;;;;;;;;;;5199967;27;20075;-62
2022/03/03 10:12:57;;;;;;;17.42;15.30;;;;;;;;;;5200771;27;20097;-62
2022/03/03 10:15:28;;;;;;;18.98;16.02;;;;;;;;;;5201030;27;20092;-62
2022/03/03 10:18:10;;;;;;;17.40;14.87;;;;;;;;;;5200980;27;20109;-62
2022/03/03 10:20:58;;;;;;;18.67;15.40;;;;;;;;;;5200603;27;20092;-63
2022/03/03 10:23:28;;;;;;;17.42;15.02;;;;;;;;;;5201109;27;20175;-62
2022/03/03 10:25:56;;;;;;;21.10;15.80;;;;;;;;;;5200714;27;20101;-62
2022/03/03 10:28:33;;;;;;;17.58;14.73;;;;;;;;;;5181985;27;20335;-62
2022/03/03 10:31:05;;;;;;;18.08;15.80;;;;;;;;;;5179363;27;20555;-62
2022/03/03 10:33:37;;;;;;;19.17;15.18;;;;;;;;;;5197637;27;20105;-62
2022/03/03 10:36:12;;;;;;;18.40;15.48;;;;;;;;;;5174339;27;20101;-61
2022/03/03 10:38:56;;;;;;;15.68;13.68;;;;;;;;;;5194122;27;20086;-61
2022/03/03 10:41:35;;;;;;;17.83;15.32;;;;;;;;;;5197438;27;20540;-61
2022/03/03 10:44:08;;;;;;;20.65;15.93;;;;;;;;;;5188894;27;20171;-63
2022/03/03 10:46:35;;;;;;;17.90;14.60;;;;;;;;;;5178551;27;20172;-63
2022/03/03 10:49:18;;;;;;;16.95;14.68;;;;;;;;;;5197727;27;20096;-62
2022/03/03 10:51:44;;;;;;;20.10;14.27;;;;;;;;;;5181022;27;20504;-61
2022/03/03 10:54:11;;;;;;;21.42;15.65;;;;;;;;;;5181329;27;20074;-61
2022/03/03 10:56:48;;;;;;;17.08;15.05;;;;;;;;;;5200515;27;20101;-63
2022/03/03 10:59:24;;;;;;;19.20;15.73;;;;;;;;;;5181885;27;20157;-61
2022/03/03 11:01:51;;;;;;;17.95;15.80;;;;;;;;;;5200230;27;20390;-63
2022/03/03 11:04:23;;;;;;;21.48;17.00;;;;;;;;;;5200726;27;20089;-63
2022/03/03 11:06:52;;;;;;;20.02;16.02;;;;;;;;;;5181614;27;20076;-61
2022/03/03 11:09:18;;;;;;;17.60;15.63;;;;;;;;;;5200558;27;20085;-62
2022/03/03 11:11:48;;;;;;;18.55;16.58;;;;;;;;;;5164125;27;20410;-63
2022/03/03 11:14:14;;;;;;;18.40;16.23;;;;;;;;;;5181098;27;20120;-62
2022/03/03 11:16:41;;;;;;;19.65;16.42;;;;;;;;;;5200608;27;20081;-64
2022/03/03 11:19:09;;;;;;;21.55;16.48;;;;;;;;;;5181713;27;20172;-64
2022/03/03 11:21:36;;;;;;;18.52;16.33;;;;;;;;;;5181050;27;20093;-64
2022/03/03 11:24:02;;;;;;;17.02;15.18;;;;;;;;;;5191494;27;20105;-62
2022/03/03 11:26:41;;;;;;;22.00;16.92;;;;;;;;;;5200517;27;20085;-65
2022/03/03 11:29:12;;;;;;;21.23;16.12;;;;;;;;;;5200765;27;20081;-65
2022/03/03 11:31:40;;;;;;;17.12;15.30;;;;;;;;;;5181199;27;20165;-64
2022/03/03 11:34:38;;;;;;;17.30;15.45;;;;;;;;;;5181012;27;20070;-64
2022/03/03 11:37:08;;;;;;;19.67;16.17;;;;;;;;;;5200764;27;20089;-63
2022/03/03 11:39:42;;;;;;;21.42;16.50;;;;;;;;;;5181190;27;20074;-64
2022/03/03 11:42:24;;;;;;;19.37;15.68;;;;;;;;;;5200448;27;20066;-65
2022/03/03 11:45:13;;;;;;;20.60;17.45;;;;;;;;;;5181155;27;20067;-66
2022/03/03 11:47:47;;;;;;;19.27;16.77;;;;;;;;;;5191755;27;20093;-65
2022/03/03 11:50:19;;;;;;;19.17;15.88;;;;;;;;;;5200531;27;20101;-64
2022/03/03 11:53:05;;;;;;;17.65;15.52;;;;;;;;;;5181204;27;20093;-62
2022/03/03 11:55:35;;;;;;;;;;;;;;;;;;5189535;27;20069;-63
2022/03/03 11:58:10;;;;;;;18.12;15.20;;;;;;;;;;5181117;27;20036;-64
2022/03/03 12:00:50;;;;;;;20.95;15.70;;;;;;;;;;5180974;27;20520;-64
2022/03/03 12:03:22;;;;;;;17.98;15.45;;;;;;;;;;5181233;27;20080;-68
2022/03/03 12:06:11;;;;;;;20.25;16.27;;;;;;;;;;5200481;27;20179;-67
2022/03/03 12:08:38;;;;;;;19.33;17.02;;;;;;;;;;5200383;27;20089;-65
2022/03/03 12:11:07;;;;;;;18.83;16.00;;;;;;;;;;5181309;27;20402;-66
2022/03/03 12:13:37;;;;;;;19.08;16.85;;;;;;;;;;5181199;27;20084;-66
2022/03/03 12:16:17;;;;;;;19.02;15.27;;;;;;;;;;5180962;27;20078;-65
2022/03/03 12:18:56;;;;;;;20.50;16.80;;;;;;;;;;5182054;27;20082;-64
2022/03/03 12:21:22;;;;;;;19.35;16.17;;;;;;;;;;5201088;27;20074;-64
2022/03/03 12:23:48;;;;;;;20.88;15.50;;;;;;;;;;5201732;27;20893;-68
2022/03/03 12:26:14;;;;;;;21.70;16.37;;;;;;;;;;5182480;27;20091;-62
2022/03/03 12:28:47;;;;;;;19.45;15.95;;;;;;;;;;5165485;27;20411;-64
2022/03/03 12:31:28;;;;;;;17.95;15.18;;;;;;;;;;5201663;27;20087;-63
2022/03/03 12:33:59;;;;;;;18.80;14.85;;;;;;;;;;5201656;27;20485;-64
2022/03/03 12:36:25;;;;;;;19.42;15.55;;;;;;;;;;5201563;27;20165;-63
2022/03/03 12:38:55;;;;;;;19.30;15.77;;;;;;;;;;5182326;27;20135;-62
2022/03/03 12:41:28;;;;;;;17.65;15.25;;;;;;;;;;5201440;27;20179;-61
2022/03/03 12:44:11;;;;;;;19.40;15.70;;;;;;;;;;5182744;27;20061;-62
2022/03/03 12:46:37;;;;;;;19.50;14.73;;;;;;;;;;5182788;27;20492;-63
2022/03/03 12:49:09;;;;;;;17.42;14.75;;;;;;;;;;5182194;27;20092;-62
2022/03/03 12:51:41;;;;;;;19.55;16.20;;;;;;;;;;5182320;27;20180;-62
2022/03/03 12:54:07;;;;;;;19.67;15.38;;;;;;;;;;5201821;27;20086;-61
2022/03/03 12:56:34;;;;;;;22.30;14.98;;;;;;;;;;5201552;27;20164;-62
2022/03/03 12:59:07;;;;;;;17.67;13.77;;;;;;;;;;5201555;27;20093;-62
2022/03/03 13:01:35;;;;;;;17.73;14.05;;;;;;;;;;5183327;27;20398;-62
2022/03/03 13:04:03;;;;;;;14.93;13.25;;;;;;;;;;5201561;27;20533;-62
2022/03/03 13:06:33;;;;;;;16.45;14.68;;;;;;;;;;5182806;27;20090;-62
2022/03/03 13:09:04;;;;;;;20.33;14.25;;;;;;;;;;5201508;27;20109;-64
2022/03/03 13:11:30;;;;;;;18.67;14.32;;;;;;;;;;5182438;27;20094;-61
2022/03/03 13:14:01;;;;;;;17.45;14.07;;;;;;;;;;5182416;27;20149;-63
2022/03/03 13:16:27;;;;;;;16.83;13.90;;;;;;;;;;5201455;27;20175;-61
2022/03/03 13:18:54;;;;;;;18.73;14.02;;;;;;;;;;5201311;27;20105;-61
2022/03/03 13:21:23;;;;;;;15.88;12.73;;;;;;;;;;5164823;27;20085;-60
2022/03/03 13:23:54;;;;;;;18.75;13.65;;;;;;;;;;5165205;27;20704;-62
2022/03/03 13:26:27;;;;;;;17.42;13.98;;;;;;;;;;5165271;27;20077;-61
2022/03/03 13:28:55;;;;;;;16.25;14.07;;;;;;;;;;5201297;27;20465;-61
2022/03/03 13:31:24;;;;;;;20.40;14.30;;;;;;;;;;5181990;27;20075;-61
2022/03/03 13:33:53;;;;;;;18.45;14.07;;;;;;;;;;5200814;27;20081;-61
2022/03/03 13:36:23;;;;;;;18.98;15.52;;;;;;;;;;5201287;27;20563;-61
2022/03/03 13:38:51;;;;;;;17.83;15.25;;;;;;;;;;5182029;27;20097;-61
2022/03/03 13:41:34;;;;;;;16.50;13.20;;;;;;;;;;5201153;27;20171;-61
2022/03/03 13:44:16;;;;;;;18.00;13.57;;;;;;;;;;5181838;27;20065;-62
2022/03/03 13:47:02;;;;;;;17.90;14.13;;;;;;;;;;5182256;27;20097;-60
2022/03/03 13:49:30;;;;;;;19.30;16.02;;;;;;;;;;5181956;27;20104;-64
2022/03/03 13:52:03;;;;;;;19.58;15.52;;;;;;;;;;5181864;27;20089;-63
2022/03/03 13:54:58;;;;;;;17.00;14.35;;;;;;;;;;5201066;27;20161;-64
2022/03/03 13:57:45;;;;;;;16.37;13.50;;;;;;;;;;5200992;27;20472;-65
2022/03/03 14:00:19;;;;;;;17.25;13.38;;;;;;;;;;5181829;27;20081;-64
2022/03/03 14:03:16;;;;;;;16.58;13.10;;;;;;;;;;5182062;27;20507;-64
2022/03/03 14:05:45;;;;;;;19.55;13.70;;;;;;;;;;5181913;27;20172;-63
2022/03/03 14:08:25;;;;;;;17.10;14.30;;;;;;;;;;5181776;27;20085;-64
2022/03/03 14:10:57;;;;;;;15.50;13.77;;;;;;;;;;5200177;27;20519;-64
2022/03/03 14:13:26;;;;;;;17.08;13.55;;;;;;;;;;5181657;27;20093;-64
2022/03/03 14:15:54;;;;;;;15.50;12.85;;;;;;;;;;5164090;27;20493;-63
2022/03/03 14:18:21;;;;;;;17.40;13.85;;;;;;;;;;5164461;27;20086;-62
2022/03/03 14:20:54;;;;;;;16.37;13.15;;;;;;;;;;5201011;27;20092;-62
2022/03/03 14:23:22;;;;;;;15.65;12.45;;;;;;;;;;5200903;27;20084;-61
2022/03/03 14:25:48;;;;;;;17.30;13.30;;;;;;;;;;5181443;27;20089;-62
2022/03/03 14:28:16;;;;;;;17.37;13.52;;;;;;;;;;5164492;27;20110;-61
2022/03/03 14:30:43;;;;;;;18.73;14.00;;;;;;;;;;5200678;27;20077;-61
2022/03/03 14:33:09;;;;;;;18.10;13.80;;;;;;;;;;5181606;27;20096;-61
2022/03/03 14:35:35;;;;;;;17.73;12.75;;;;;;;;;;5198543;27;20487;-62
2022/03/03 14:38:01;;;;;;;18.70;14.63;;;;;;;;;;5200216;27;20086;-64
2022/03/03 14:40:28;;;;;;;16.00;13.80;;;;;;;;;;5201100;27;20410;-60
2022/03/03 14:42:54;;;;;;;17.67;13.43;;;;;;;;;;5181452;27;20073;-63
2022/03/03 14:45:20;;;;;;;19.40;13.18;;;;;;;;;;5200681;27;20086;-62
2022/03/03 14:47:46;;;;;;;16.80;13.62;;;;;;;;;;5200715;27;20082;-62